Time;durP1;ratioP1;P1;durP2;ratioP2;P2;SDS_P1;SDS_P2;PMS_P1;PMS_P2;Temp;Humidity;BMP_temperature;BMP_pressure;BME280_temperature;BME280_humidity;BME280_pressure;Samples;Min_cycle;Max_cycle;Signal;HPM_P1;HPM_P2
2024/01/07 00:00:20;;;;;;;64.82;40.63;;;1.20;99.90;;;;;;5114799;28;20023;-80
2024/01/07 00:02:46;;;;;;;74.15;44.92;;;1.10;99.90;;;;;;5112779;28;20024;-80
2024/01/07 00:05:12;;;;;;;73.55;42.42;;;1.10;99.90;;;;;;5102528;28;20020;-79
2024/01/07 00:07:38;;;;;;;76.57;43.45;;;1.10;99.90;;;;;;5106046;28;20022;-79
2024/01/07 00:10:04;;;;;;;75.10;44.08;;;1.10;99.90;;;;;;5114058;28;20111;-81
2024/01/07 00:12:30;;;;;;;73.57;44.38;;;1.10;99.90;;;;;;5114377;28;20026;-79
2024/01/07 00:14:59;;;;;;;69.72;43.75;;;0.90;99.90;;;;;;5115228;28;20027;-79
2024/01/07 00:17:25;;;;;;;75.60;44.28;;;1.00;99.90;;;;;;5114554;28;20028;-79
2024/01/07 00:19:50;;;;;;;65.85;40.67;;;0.90;99.90;;;;;;5113791;28;20019;-78
2024/01/07 00:22:18;;;;;;;79.82;45.45;;;0.90;99.90;;;;;;5113719;28;20046;-80
2024/01/07 00:24:43;;;;;;;69.90;44.10;;;0.90;99.90;;;;;;5114697;28;20016;-78
2024/01/07 00:27:09;;;;;;;75.20;46.33;;;1.00;99.90;;;;;;5114471;28;20341;-78
2024/01/07 00:29:35;;;;;;;72.15;44.85;;;1.00;99.90;;;;;;5114335;28;20106;-79
2024/01/07 00:32:02;;;;;;;69.03;44.05;;;1.10;99.90;;;;;;5114940;28;20028;-79
2024/01/07 00:34:27;;;;;;;77.30;47.42;;;1.00;99.90;;;;;;5114357;28;20023;-78
2024/01/07 00:36:53;;;;;;;76.88;48.50;;;1.00;99.90;;;;;;5114814;28;20069;-79
2024/01/07 00:39:19;;;;;;;74.50;45.72;;;1.00;99.90;;;;;;5114913;28;20012;-78
2024/01/07 00:41:45;;;;;;;78.43;48.85;;;1.10;99.90;;;;;;5113736;28;20030;-79
2024/01/07 00:44:10;;;;;;;59.55;39.25;;;1.00;99.90;;;;;;5113500;28;20030;-79
2024/01/07 00:46:36;;;;;;;72.18;45.30;;;0.90;99.90;;;;;;5113409;28;20415;-79
2024/01/07 00:49:01;;;;;;;74.35;47.78;;;1.00;99.90;;;;;;5114435;28;20039;-80
2024/01/07 00:51:27;;;;;;;66.13;41.03;;;0.90;99.90;;;;;;5113174;28;20055;-79
2024/01/07 00:53:53;;;;;;;66.70;40.38;;;0.90;99.90;;;;;;5112704;28;20114;-79
2024/01/07 00:56:19;;;;;;;62.83;38.33;;;0.90;99.90;;;;;;5127966;27;20424;-79
2024/01/07 00:58:44;;;;;;;59.95;37.65;;;0.90;99.90;;;;;;5133704;27;20106;-78
2024/01/07 01:01:10;;;;;;;71.95;42.22;;;0.90;99.90;;;;;;5134191;27;20018;-78
2024/01/07 01:03:36;;;;;;;63.50;39.97;;;0.90;99.90;;;;;;5134265;27;20019;-79
2024/01/07 01:06:02;;;;;;;63.70;38.38;;;0.90;99.90;;;;;;5135424;27;20160;-79
2024/01/07 01:08:28;;;;;;;70.93;43.70;;;0.90;99.90;;;;;;5132963;27;20019;-79
2024/01/07 01:10:54;;;;;;;67.90;43.00;;;0.80;99.90;;;;;;5134407;27;20135;-79
2024/01/07 01:13:19;;;;;;;75.30;44.97;;;0.80;99.90;;;;;;5134437;27;20037;-79
2024/01/07 01:15:45;;;;;;;53.25;34.28;;;0.80;99.90;;;;;;5115903;27;20023;-79
2024/01/07 01:18:11;;;;;;;74.05;42.20;;;0.80;99.90;;;;;;5136250;27;20456;-78
2024/01/07 01:20:37;;;;;;;53.35;36.25;;;0.80;99.90;;;;;;5135402;27;20019;-78
2024/01/07 01:23:03;;;;;;;52.08;31.73;;;0.70;99.90;;;;;;5135706;27;20087;-78
2024/01/07 01:25:29;;;;;;;59.33;34.90;;;0.60;99.90;;;;;;5134774;27;20023;-78
2024/01/07 01:27:56;;;;;;;60.50;36.20;;;0.80;99.90;;;;;;5134908;27;20098;-77
2024/01/07 01:30:22;;;;;;;60.50;37.25;;;0.80;99.90;;;;;;5134135;27;20040;-77
2024/01/07 01:32:48;;;;;;;62.42;38.08;;;0.70;99.90;;;;;;5134635;27;20064;-77
2024/01/07 01:35:14;;;;;;;78.45;47.35;;;0.70;99.90;;;;;;5134572;27;20025;-77
2024/01/07 01:37:40;;;;;;;60.22;36.30;;;0.60;99.90;;;;;;5133954;27;20076;-78
2024/01/07 01:40:06;;;;;;;76.63;43.38;;;0.70;99.90;;;;;;5134867;27;20082;-77
2024/01/07 01:42:32;;;;;;;68.60;40.28;;;0.70;99.90;;;;;;5133331;27;20393;-78
2024/01/07 01:45:01;;;;;;;78.15;46.70;;;0.80;99.90;;;;;;5135240;27;20145;-78
2024/01/07 01:47:28;;;;;;;49.20;29.95;;;0.90;99.90;;;;;;5133753;27;20019;-79
2024/01/07 01:49:55;;;;;;;55.38;33.90;;;0.90;99.90;;;;;;5133593;27;20027;-78
2024/01/07 01:52:21;;;;;;;58.33;36.38;;;1.10;99.90;;;;;;5133723;27;20023;-78
2024/01/07 01:54:47;;;;;;;54.60;32.17;;;0.90;99.90;;;;;;5133018;27;20139;-79
2024/01/07 01:57:19;;;;;;;52.03;31.33;;;1.10;99.90;;;;;;5114667;27;20174;-78
2024/01/07 01:59:44;;;;;;;48.50;29.40;;;1.00;99.90;;;;;;5133137;27;20020;-78
2024/01/07 02:02:11;;;;;;;53.55;30.52;;;1.10;99.90;;;;;;5133997;27;20339;-78
2024/01/07 02:04:37;;;;;;;57.75;33.03;;;1.10;99.90;;;;;;5133626;27;20023;-79
2024/01/07 02:07:02;;;;;;;49.25;27.98;;;1.00;99.90;;;;;;5134026;27;20042;-79
2024/01/07 02:09:28;;;;;;;48.15;28.20;;;1.00;99.90;;;;;;5134563;27;20027;-79
2024/01/07 02:12:02;;;;;;;43.70;25.77;;;1.10;99.90;;;;;;5134324;27;20023;-79
2024/01/07 02:14:28;;;;;;;43.90;25.85;;;1.10;99.90;;;;;;5133995;27;20046;-79
2024/01/07 02:16:53;;;;;;;43.78;25.60;;;1.00;99.90;;;;;;5133962;27;20463;-79
2024/01/07 02:19:21;;;;;;;43.95;25.23;;;1.10;99.90;;;;;;5133891;27;20071;-78
2024/01/07 02:21:47;;;;;;;45.45;25.73;;;1.00;99.90;;;;;;5132848;27;20076;-79
2024/01/07 02:24:16;;;;;;;47.13;25.20;;;1.00;99.90;;;;;;5133018;27;20100;-79
2024/01/07 02:26:42;;;;;;;46.80;27.90;;;0.90;99.90;;;;;;5132060;27;20038;-79
2024/01/07 02:29:08;;;;;;;48.78;31.10;;;0.90;99.90;;;;;;5133122;27;20023;-78
2024/01/07 02:31:34;;;;;;;56.40;29.15;;;0.90;99.90;;;;;;5133063;27;20068;-77
2024/01/07 02:33:59;;;;;;;50.15;27.40;;;0.90;99.90;;;;;;5134274;27;20026;-78
2024/01/07 02:36:25;;;;;;;45.72;29.02;;;1.00;99.90;;;;;;5134088;27;20348;-78
2024/01/07 02:38:51;;;;;;;44.90;27.88;;;0.80;99.90;;;;;;5133357;27;20027;-79
2024/01/07 02:41:19;;;;;;;56.63;29.70;;;0.90;99.90;;;;;;5133278;27;20080;-77
2024/01/07 02:43:45;;;;;;;53.40;32.03;;;0.90;99.90;;;;;;5114295;28;20077;-78
2024/01/07 02:46:11;;;;;;;56.47;35.67;;;0.90;99.90;;;;;;5114558;27;20199;-78
2024/01/07 02:48:38;;;;;;;54.03;29.55;;;0.90;99.90;;;;;;5133037;27;20035;-78
2024/01/07 02:51:05;;;;;;;50.42;28.60;;;0.90;99.90;;;;;;5133231;28;20054;-78
2024/01/07 02:53:31;;;;;;;42.70;26.52;;;0.90;99.90;;;;;;5133083;28;20022;-79
2024/01/07 02:55:59;;;;;;;48.83;26.27;;;0.70;99.90;;;;;;5114990;28;20039;-78
2024/01/07 02:58:25;;;;;;;40.70;23.40;;;0.80;99.90;;;;;;5134047;28;20049;-78
2024/01/07 03:00:50;;;;;;;39.35;23.23;;;0.60;99.90;;;;;;5133843;28;20357;-78
2024/01/07 03:03:16;;;;;;;40.05;24.33;;;0.70;99.90;;;;;;5134249;28;20121;-78
2024/01/07 03:05:42;;;;;;;35.63;21.50;;;0.60;99.90;;;;;;5133365;28;20023;-78
2024/01/07 03:08:07;;;;;;;39.42;23.58;;;0.70;99.90;;;;;;5132999;28;20034;-77
2024/01/07 03:10:33;;;;;;;48.33;25.17;;;0.50;99.90;;;;;;5132263;28;20055;-78
2024/01/07 03:13:00;;;;;;;41.00;24.48;;;0.50;99.90;;;;;;5132500;28;20024;-78
2024/01/07 03:15:26;;;;;;;41.97;23.60;;;0.40;99.90;;;;;;5132588;28;20022;-78
2024/01/07 03:17:52;;;;;;;40.88;24.63;;;0.40;99.90;;;;;;5132395;28;20028;-77
2024/01/07 03:20:17;;;;;;;40.50;23.30;;;0.40;99.90;;;;;;5133149;28;20023;-77
2024/01/07 03:22:43;;;;;;;47.47;25.52;;;0.40;99.90;;;;;;5132593;28;20067;-77
2024/01/07 03:25:09;;;;;;;47.92;26.80;;;0.50;99.90;;;;;;5132453;28;20465;-78
2024/01/07 03:27:35;;;;;;;42.55;24.85;;;0.40;99.90;;;;;;5131862;28;20050;-78
2024/01/07 03:30:00;;;;;;;39.85;24.58;;;0.40;99.90;;;;;;5132324;28;20023;-78
2024/01/07 03:32:26;;;;;;;36.83;24.00;;;0.30;99.90;;;;;;5115552;27;20037;-78
2024/01/07 03:34:52;;;;;;;39.05;23.13;;;0.20;99.90;;;;;;5136789;27;20112;-77
2024/01/07 03:37:17;;;;;;;41.72;24.88;;;0.20;99.90;;;;;;5137031;27;20316;-77
2024/01/07 03:39:44;;;;;;;44.05;23.52;;;0.20;99.90;;;;;;5135980;27;20432;-78
2024/01/07 03:42:11;;;;;;;37.50;23.15;;;0.10;99.90;;;;;;5136256;27;20456;-78
2024/01/07 03:44:38;;;;;;;39.67;23.23;;;0.30;99.90;;;;;;5135704;27;20061;-78
2024/01/07 03:47:04;;;;;;;48.15;27.30;;;0.20;99.90;;;;;;5136223;27;20035;-77
2024/01/07 03:49:30;;;;;;;44.55;26.38;;;0.20;99.90;;;;;;5136204;27;20478;-79
2024/01/07 03:51:55;;;;;;;42.95;26.27;;;0.20;99.90;;;;;;5135710;27;20023;-78
2024/01/07 03:54:21;;;;;;;42.63;25.48;;;0.20;99.90;;;;;;5136727;27;20436;-78
2024/01/07 03:56:48;;;;;;;49.88;28.45;;;0.20;99.90;;;;;;5136137;27;20039;-78
2024/01/07 03:59:13;;;;;;;55.72;30.27;;;0.20;99.90;;;;;;5136140;27;20026;-79
2024/01/07 04:01:39;;;;;;;49.40;28.67;;;0.20;99.90;;;;;;5135237;27;20019;-79
2024/01/07 04:04:06;;;;;;;42.00;25.30;;;0.20;99.90;;;;;;5136880;27;20035;-78
2024/01/07 04:06:32;;;;;;;45.25;25.63;;;0.20;99.90;;;;;;5136335;27;20027;-78
2024/01/07 04:08:58;;;;;;;35.60;23.73;;;0.10;99.90;;;;;;5136548;27;20072;-78
2024/01/07 04:11:24;;;;;;;43.25;24.40;;;0.10;99.90;;;;;;5136677;27;20018;-78
2024/01/07 04:13:49;;;;;;;44.20;25.05;;;0.00;99.90;;;;;;5135014;27;20023;-78
2024/01/07 04:16:17;;;;;;;44.08;25.48;;;0.10;99.90;;;;;;5135636;27;20027;-77
2024/01/07 04:18:43;;;;;;;41.85;25.83;;;0.10;99.90;;;;;;5135379;27;20102;-77
2024/01/07 04:21:12;;;;;;;44.78;26.60;;;0.10;99.90;;;;;;5136941;27;20062;-78
2024/01/07 04:23:43;;;;;;;40.72;24.83;;;0.10;99.90;;;;;;5135185;27;20084;-78
2024/01/07 04:26:09;;;;;;;45.60;26.00;;;0.10;99.90;;;;;;5136363;27;20023;-77
2024/01/07 04:28:35;;;;;;;46.75;26.25;;;0.00;99.90;;;;;;5135368;27;20035;-78
2024/01/07 04:31:01;;;;;;;47.90;26.52;;;0.00;99.90;;;;;;5135647;27;20444;-78
2024/01/07 04:33:27;;;;;;;44.92;25.73;;;0.00;99.90;;;;;;5135604;27;20378;-78
2024/01/07 04:35:57;;;;;;;45.33;26.85;;;-0.10;99.90;;;;;;5136155;27;20023;-77
2024/01/07 04:38:23;;;;;;;41.85;26.17;;;0.00;99.90;;;;;;5136014;27;20023;-79
2024/01/07 04:40:49;;;;;;;42.63;26.02;;;-0.10;99.90;;;;;;5134829;27;20363;-78
2024/01/07 04:43:15;;;;;;;43.22;25.70;;;-0.10;99.90;;;;;;5134291;27;20019;-79
2024/01/07 04:45:40;;;;;;;39.78;24.13;;;0.00;99.90;;;;;;5134477;27;20015;-79
2024/01/07 04:48:06;;;;;;;39.75;25.35;;;-0.10;99.90;;;;;;5134839;27;20474;-79
2024/01/07 04:50:32;;;;;;;39.67;23.83;;;-0.10;99.90;;;;;;5134264;27;20023;-79
2024/01/07 04:52:58;;;;;;;45.28;25.80;;;-0.10;99.90;;;;;;5135360;27;20015;-78
2024/01/07 04:55:24;;;;;;;45.40;27.20;;;0.00;99.90;;;;;;5134792;27;20039;-79
2024/01/07 04:57:50;;;;;;;44.63;25.83;;;-0.10;99.90;;;;;;5133627;27;20455;-79
2024/01/07 05:00:16;;;;;;;42.70;25.45;;;-0.10;99.90;;;;;;5134844;27;20023;-79
2024/01/07 05:02:41;;;;;;;40.72;25.25;;;-0.10;99.90;;;;;;5115719;27;20379;-79
2024/01/07 05:05:10;;;;;;;43.63;25.05;;;-0.20;99.90;;;;;;5135499;27;20023;-79
2024/01/07 05:07:37;;;;;;;40.38;24.20;;;-0.20;99.90;;;;;;5134987;27;20103;-79
2024/01/07 05:10:03;;;;;;;47.15;24.63;;;-0.10;99.90;;;;;;5134423;27;20456;-79
2024/01/07 05:12:29;;;;;;;41.75;24.80;;;-0.10;99.90;;;;;;5135902;27;20107;-77
2024/01/07 05:14:54;;;;;;;52.97;26.67;;;-0.20;99.90;;;;;;5140708;27;20436;-78
2024/01/07 05:17:20;;;;;;;42.78;26.63;;;-0.30;99.90;;;;;;5141109;27;20083;-78
2024/01/07 05:19:46;;;;;;;42.47;24.00;;;-0.20;99.90;;;;;;5140400;27;20019;-78
2024/01/07 05:22:11;;;;;;;44.97;24.25;;;-0.20;99.90;;;;;;5140105;27;20034;-79
2024/01/07 05:24:41;;;;;;;42.22;23.17;;;-0.20;99.90;;;;;;5138637;27;20030;-79
2024/01/07 05:27:07;;;;;;;45.00;24.77;;;-0.20;99.90;;;;;;5137791;27;20023;-79
2024/01/07 05:29:33;;;;;;;44.70;25.42;;;-0.20;99.90;;;;;;5138059;27;20042;-79
2024/01/07 05:32:00;;;;;;;41.60;22.80;;;-0.40;99.90;;;;;;5120439;27;20562;-79
2024/01/07 05:34:27;;;;;;;45.05;24.02;;;-0.40;99.90;;;;;;5139142;27;20020;-79
2024/01/07 05:36:53;;;;;;;44.88;22.13;;;-0.30;99.90;;;;;;5138807;27;20060;-79
2024/01/07 05:39:19;;;;;;;38.20;21.65;;;-0.30;99.90;;;;;;5140861;27;20095;-80
2024/01/07 05:41:45;;;;;;;53.28;26.77;;;-0.20;99.90;;;;;;5136954;27;20023;-80
2024/01/07 05:44:12;;;;;;;60.95;27.67;;;-0.30;99.90;;;;;;5135716;27;20031;-79
2024/01/07 05:46:41;;;;;;;48.97;23.63;;;-0.20;99.90;;;;;;5135980;27;20048;-79
2024/01/07 05:49:08;;;;;;;53.33;26.33;;;-0.30;99.90;;;;;;5138587;27;20166;-79
2024/01/07 05:51:34;;;;;;;53.72;25.10;;;-0.20;99.90;;;;;;5120733;27;20087;-78
2024/01/07 05:53:59;;;;;;;51.60;25.83;;;-0.30;99.90;;;;;;5140153;27;20046;-80
2024/01/07 05:56:25;;;;;;;48.85;25.33;;;-0.30;99.90;;;;;;5140321;27;20044;-78
2024/01/07 05:58:51;;;;;;;52.08;25.55;;;-0.30;99.90;;;;;;5137329;27;20039;-78
2024/01/07 06:01:20;;;;;;;50.42;24.98;;;-0.30;99.90;;;;;;5137736;27;20309;-79
2024/01/07 06:03:50;;;;;;;41.88;23.58;;;-0.30;99.90;;;;;;5137412;27;20026;-79
2024/01/07 06:06:16;;;;;;;51.97;25.52;;;-0.30;99.90;;;;;;5137206;27;20110;-78
2024/01/07 06:08:42;;;;;;;49.30;25.13;;;-0.30;99.90;;;;;;5137085;27;20035;-79
2024/01/07 06:11:10;;;;;;;48.05;22.25;;;-0.20;99.90;;;;;;5137529;27;20015;-79
2024/01/07 06:13:36;;;;;;;51.13;24.38;;;-0.20;99.90;;;;;;5137016;27;20030;-78
2024/01/07 06:16:02;;;;;;;46.17;23.27;;;-0.20;99.90;;;;;;5137016;27;20023;-79
2024/01/07 06:18:29;;;;;;;58.88;25.60;;;-0.30;99.90;;;;;;5139738;27;20019;-79
2024/01/07 06:20:55;;;;;;;53.03;23.45;;;-0.20;99.90;;;;;;5141435;27;20026;-78
2024/01/07 06:23:20;;;;;;;58.33;26.20;;;-0.30;99.90;;;;;;5142565;27;20023;-79
2024/01/07 06:25:46;;;;;;;51.25;24.35;;;-0.20;99.90;;;;;;5139634;27;20362;-79
2024/01/07 06:28:12;;;;;;;46.75;23.77;;;-0.30;99.90;;;;;;5139961;27;20039;-79
2024/01/07 06:30:38;;;;;;;46.78;22.05;;;-0.20;99.90;;;;;;5141255;27;20360;-78
2024/01/07 06:33:05;;;;;;;66.40;25.27;;;-0.30;99.90;;;;;;5123081;27;20403;-79
2024/01/07 06:35:30;;;;;;;52.13;24.05;;;-0.30;99.90;;;;;;5142358;27;20023;-78
2024/01/07 06:37:57;;;;;;;52.20;22.63;;;-0.20;99.90;;;;;;5142165;27;20043;-78
2024/01/07 06:40:24;;;;;;;57.42;25.10;;;-0.30;99.90;;;;;;5143309;27;20094;-79
2024/01/07 06:42:50;;;;;;;46.15;20.00;;;-0.20;99.90;;;;;;5142758;27;20083;-79
2024/01/07 06:45:17;;;;;;;42.90;21.63;;;-0.20;99.90;;;;;;5144417;27;20038;-78
2024/01/07 06:47:42;;;;;;;37.53;19.67;;;-0.10;99.90;;;;;;5145796;27;20023;-80
2024/01/07 06:50:10;;;;;;;40.97;20.27;;;-0.20;99.90;;;;;;5156393;27;20030;-79
2024/01/07 06:52:36;;;;;;;37.95;19.20;;;-0.20;99.90;;;;;;5156718;28;20022;-78
2024/01/07 06:55:01;;;;;;;41.33;20.77;;;-0.10;99.90;;;;;;5156102;27;20051;-79
2024/01/07 06:57:27;;;;;;;37.22;20.35;;;-0.10;99.90;;;;;;5156789;28;20030;-78
2024/01/07 06:59:53;;;;;;;42.78;20.88;;;-0.20;99.90;;;;;;5156316;28;20035;-79
2024/01/07 07:02:21;;;;;;;41.35;19.42;;;-0.20;99.90;;;;;;5156544;28;20023;-77
2024/01/07 07:04:47;;;;;;;54.83;21.35;;;-0.10;99.90;;;;;;5150931;28;20024;-79
2024/01/07 07:07:13;;;;;;;49.88;20.80;;;-0.20;99.90;;;;;;5140555;27;20118;-79
2024/01/07 07:09:39;;;;;;;49.00;21.10;;;-0.20;99.90;;;;;;5143112;27;20031;-80
2024/01/07 07:12:05;;;;;;;40.40;19.88;;;-0.20;99.90;;;;;;5139635;27;20034;-79
2024/01/07 07:14:31;;;;;;;36.83;19.08;;;-0.30;99.90;;;;;;5143774;27;20068;-78
2024/01/07 07:16:58;;;;;;;45.95;23.58;;;-0.20;99.90;;;;;;5107529;27;20118;-79
2024/01/07 07:19:24;;;;;;;58.30;21.95;;;-0.10;99.90;;;;;;5122448;27;20023;-79
2024/01/07 07:21:50;;;;;;;50.88;21.88;;;-0.20;99.90;;;;;;5139389;27;20026;-80
2024/01/07 07:24:15;;;;;;;43.45;19.95;;;-0.20;99.90;;;;;;5123543;27;20026;-79
2024/01/07 07:26:42;;;;;;;43.75;19.83;;;-0.20;99.90;;;;;;5140129;27;20020;-80
2024/01/07 07:29:09;;;;;;;50.00;21.15;;;-0.30;99.90;;;;;;5121995;27;20027;-79
2024/01/07 07:31:36;;;;;;;44.90;21.08;;;-0.10;99.90;;;;;;5140991;27;20012;-78
2024/01/07 07:34:08;;;;;;;47.03;20.33;;;-0.10;99.90;;;;;;5141978;27;20015;-79
2024/01/07 07:36:34;;;;;;;43.35;20.60;;;-0.10;99.90;;;;;;5121840;27;20373;-80
2024/01/07 07:39:00;;;;;;;58.28;22.23;;;-0.10;99.90;;;;;;5139764;27;20031;-79
2024/01/07 07:41:26;;;;;;;59.17;23.65;;;0.00;99.90;;;;;;5140553;27;20102;-79
2024/01/07 07:43:51;;;;;;;54.15;20.67;;;0.00;99.90;;;;;;5141196;27;20069;-79
2024/01/07 07:46:17;;;;;;;51.53;22.00;;;0.00;99.90;;;;;;5139439;27;20030;-79
2024/01/07 07:48:43;;;;;;;43.45;20.85;;;0.00;99.90;;;;;;5141203;27;20031;-79
2024/01/07 07:51:09;;;;;;;44.65;20.20;;;0.00;99.90;;;;;;5140566;27;20082;-79
2024/01/07 07:53:37;;;;;;;41.72;19.60;;;0.10;99.90;;;;;;5139130;27;20195;-79
2024/01/07 07:56:03;;;;;;;83.05;25.02;;;0.10;99.90;;;;;;5140514;27;20475;-79
2024/01/07 07:58:29;;;;;;;53.15;21.85;;;0.20;99.90;;;;;;5141103;27;20095;-79
2024/01/07 08:00:55;;;;;;;49.95;21.55;;;0.20;99.90;;;;;;5140592;27;20035;-79
2024/01/07 08:03:21;;;;;;;64.53;21.75;;;0.20;99.90;;;;;;5139789;27;20029;-79
2024/01/07 08:05:46;;;;;;;59.50;24.13;;;0.20;99.90;;;;;;5139996;27;20043;-79
2024/01/07 08:08:12;;;;;;;59.53;20.60;;;0.10;99.90;;;;;;5139492;27;20046;-78
2024/01/07 08:10:39;;;;;;;68.80;21.65;;;0.20;99.90;;;;;;5138394;27;20023;-79
2024/01/07 08:13:06;;;;;;;44.75;21.17;;;0.10;99.90;;;;;;5138602;27;20019;-79
2024/01/07 08:15:32;;;;;;;41.20;18.67;;;0.20;99.90;;;;;;5127622;27;20398;-78
2024/01/07 08:17:57;;;;;;;43.97;19.77;;;0.10;99.90;;;;;;5126766;27;20039;-78
2024/01/07 08:20:23;;;;;;;44.80;18.85;;;0.10;99.90;;;;;;5138798;27;20075;-78
2024/01/07 08:22:49;;;;;;;41.67;18.48;;;0.10;99.90;;;;;;5140619;27;20431;-80
2024/01/07 08:25:15;;;;;;;40.65;17.45;;;0.10;99.90;;;;;;5140623;27;20029;-79
2024/01/07 08:27:41;;;;;;;30.95;16.10;;;0.10;99.90;;;;;;5141163;27;20071;-79
2024/01/07 08:30:08;;;;;;;57.95;20.80;;;0.20;99.90;;;;;;5140191;27;20022;-80
2024/01/07 08:32:34;;;;;;;36.72;18.42;;;0.10;99.90;;;;;;5140826;27;20079;-79
2024/01/07 08:35:01;;;;;;;56.72;19.67;;;0.20;99.90;;;;;;5139441;27;20026;-79
2024/01/07 08:37:26;;;;;;;46.38;20.08;;;0.20;99.90;;;;;;5139365;27;20317;-80
2024/01/07 08:39:52;;;;;;;42.95;18.38;;;0.20;99.90;;;;;;5140060;27;20034;-80
2024/01/07 08:42:18;;;;;;;42.03;18.13;;;0.10;99.90;;;;;;5139482;27;20026;-79
2024/01/07 08:44:43;;;;;;;36.55;16.98;;;0.20;99.90;;;;;;5140006;27;20511;-79
2024/01/07 08:47:09;;;;;;;40.22;19.15;;;0.20;99.90;;;;;;5140192;27;20087;-79
2024/01/07 08:49:35;;;;;;;51.55;19.85;;;0.30;99.90;;;;;;5140359;27;20042;-80
2024/01/07 08:52:02;;;;;;;37.13;18.38;;;0.10;99.90;;;;;;5140016;27;20015;-80
2024/01/07 08:54:27;;;;;;;58.15;19.70;;;0.20;99.90;;;;;;5139968;27;20038;-81
2024/01/07 08:56:53;;;;;;;43.15;19.75;;;0.20;99.90;;;;;;5139672;27;20082;-80
2024/01/07 08:59:19;;;;;;;44.78;19.27;;;0.20;99.90;;;;;;5139700;27;20051;-81
2024/01/07 09:01:44;;;;;;;35.05;18.90;;;0.20;99.90;;;;;;5120793;27;20099;-80
2024/01/07 09:04:10;;;;;;;39.88;18.23;;;0.30;99.90;;;;;;5140877;27;20037;-80
2024/01/07 09:06:36;;;;;;;49.15;17.95;;;0.20;99.90;;;;;;5122030;27;20030;-81
2024/01/07 09:09:02;;;;;;;37.78;17.55;;;0.20;99.90;;;;;;5121325;27;20027;-81
2024/01/07 09:11:28;;;;;;;95.43;25.00;;;0.30;99.90;;;;;;5139705;27;20167;-81
2024/01/07 09:13:53;;;;;;;55.72;19.88;;;0.20;99.90;;;;;;5145508;27;20027;-80
2024/01/07 09:16:19;;;;;;;45.20;18.90;;;0.20;99.90;;;;;;5155315;27;20027;-81
2024/01/07 09:18:45;;;;;;;54.53;20.23;;;0.30;99.90;;;;;;5153462;27;20027;-81
2024/01/07 09:21:11;;;;;;;55.17;21.27;;;0.30;99.90;;;;;;5151695;27;20083;-81
2024/01/07 09:23:37;;;;;;;56.53;20.23;;;0.30;99.90;;;;;;5151868;27;20023;-81
2024/01/07 09:26:03;;;;;;;60.70;21.33;;;0.30;99.90;;;;;;5152312;27;20027;-81
2024/01/07 09:28:28;;;;;;;37.75;18.75;;;0.20;99.90;;;;;;5150746;27;20027;-81
2024/01/07 09:30:54;;;;;;;46.85;19.52;;;0.20;99.90;;;;;;5123090;27;20023;-81
2024/01/07 09:33:22;;;;;;;44.95;17.90;;;0.20;99.90;;;;;;5152825;27;20026;-80
2024/01/07 09:35:48;;;;;;;41.08;18.80;;;0.20;99.90;;;;;;5148093;27;20047;-81
2024/01/07 09:38:14;;;;;;;50.92;19.67;;;0.30;99.90;;;;;;5125409;27;20608;-81
2024/01/07 09:40:39;;;;;;;42.35;18.30;;;0.30;99.90;;;;;;5162324;27;20440;-81
2024/01/07 09:43:05;;;;;;;39.22;18.40;;;0.40;99.90;;;;;;5158182;27;20045;-80
2024/01/07 09:45:31;;;;;;;50.67;20.63;;;0.40;99.90;;;;;;5159143;27;20023;-81
2024/01/07 09:47:57;;;;;;;48.83;20.30;;;0.40;99.90;;;;;;5138761;27;20033;-79
2024/01/07 09:50:23;;;;;;;45.20;20.10;;;0.40;99.90;;;;;;5161155;27;20026;-80
2024/01/07 09:52:53;;;;;;;37.22;17.35;;;0.40;99.90;;;;;;5119630;27;20550;-79
2024/01/07 09:55:29;;;;;;;36.83;17.15;;;0.40;99.90;;;;;;5154300;27;20099;-79
2024/01/07 09:57:55;;;;;;;39.85;18.95;;;0.30;99.90;;;;;;5155852;27;20362;-80
2024/01/07 10:00:20;;;;;;;37.42;18.00;;;0.40;99.90;;;;;;5155835;27;20097;-81
2024/01/07 10:02:46;;;;;;;47.63;20.35;;;0.40;99.90;;;;;;5157115;27;20426;-80
2024/01/07 10:05:12;;;;;;;38.35;18.23;;;0.60;99.90;;;;;;5155199;27;20037;-80
2024/01/07 10:07:38;;;;;;;42.38;18.30;;;0.40;99.90;;;;;;5156005;27;20107;-79
2024/01/07 10:10:17;;;;;;;39.72;17.25;;;0.50;99.90;;;;;;5156607;27;20031;-80
2024/01/07 10:12:46;;;;;;;40.05;17.80;;;0.60;99.90;;;;;;5156607;27;20023;-80
2024/01/07 10:15:13;;;;;;;42.85;19.77;;;0.50;99.90;;;;;;5157132;27;20093;-80
2024/01/07 10:17:42;;;;;;;49.90;20.23;;;0.60;99.90;;;;;;5156092;27;20023;-80
2024/01/07 10:20:10;;;;;;;39.33;18.95;;;0.60;99.90;;;;;;5155573;27;20124;-79
2024/01/07 10:22:39;;;;;;;51.40;19.25;;;0.50;99.90;;;;;;5144956;27;20027;-79
2024/01/07 10:25:06;;;;;;;46.45;17.80;;;0.50;99.90;;;;;;5134168;27;20080;-79
2024/01/07 10:27:38;;;;;;;39.92;17.25;;;0.40;99.90;;;;;;5125206;27;20441;-78
2024/01/07 10:30:04;;;;;;;39.42;17.77;;;0.40;99.90;;;;;;5124090;27;20020;-79
2024/01/07 10:32:30;;;;;;;43.55;18.35;;;0.50;99.90;;;;;;5114677;28;20048;-78
2024/01/07 10:35:03;;;;;;;37.15;18.05;;;0.60;99.90;;;;;;5117364;28;20015;-77
2024/01/07 10:37:29;;;;;;;56.03;18.20;;;0.60;99.90;;;;;;5115567;28;20023;-78
2024/01/07 10:40:02;;;;;;;41.20;17.65;;;0.60;99.90;;;;;;5115204;28;20471;-79
2024/01/07 10:42:32;;;;;;;66.28;19.50;;;0.60;99.90;;;;;;5114792;28;20509;-79
2024/01/07 10:45:01;;;;;;;52.47;20.58;;;0.70;99.90;;;;;;5115790;27;20014;-78
2024/01/07 10:47:31;;;;;;;57.70;20.83;;;0.60;99.90;;;;;;5104775;27;20105;-78
2024/01/07 10:49:58;;;;;;;64.72;18.38;;;0.70;99.90;;;;;;5136452;27;20325;-77
2024/01/07 10:52:27;;;;;;;53.47;18.92;;;0.60;99.90;;;;;;5129406;27;20026;-77
2024/01/07 10:54:56;;;;;;;42.53;18.52;;;0.60;99.90;;;;;;5121185;27;20020;-78
2024/01/07 10:57:33;;;;;;;42.90;17.90;;;0.50;99.90;;;;;;5126353;27;20031;-78
2024/01/07 11:00:00;;;;;;;55.50;20.13;;;0.50;99.90;;;;;;5155583;27;20102;-80
2024/01/07 11:02:27;;;;;;;62.35;20.67;;;0.50;99.90;;;;;;5149902;27;20011;-79
2024/01/07 11:05:23;;;;;;;49.72;20.33;;;0.60;99.90;;;;;;5125173;28;20031;-79
2024/01/07 11:08:00;;;;;;;48.22;23.00;;;0.40;99.90;;;;;;5129338;28;20031;-79
2024/01/07 11:10:38;;;;;;;61.60;27.05;;;0.40;99.90;;;;;;5135829;28;20023;-79
2024/01/07 11:13:04;;;;;;;48.50;21.80;;;0.40;99.90;;;;;;5115583;28;20027;-78
2024/01/07 11:15:48;;;;;;;38.63;20.73;;;0.40;99.90;;;;;;5134207;28;20020;-79
2024/01/07 11:18:20;;;;;;;50.40;26.27;;;0.40;99.90;;;;;;5134817;28;20076;-78
2024/01/07 11:20:47;;;;;;;;;;;0.30;99.90;;;;;;5098512;28;20115;-79
2024/01/07 11:23:42;;;;;;;49.13;23.98;;;0.40;99.90;;;;;;5114738;28;19903;-78
2024/01/07 11:26:10;;;;;;;41.00;20.58;;;0.40;99.90;;;;;;5114860;28;20020;-78
2024/01/07 11:28:45;;;;;;;47.38;20.10;;;0.40;99.90;;;;;;5113880;28;20032;-78
2024/01/07 11:31:11;;;;;;;44.42;20.90;;;0.50;99.90;;;;;;5115215;28;20020;-79
2024/01/07 11:33:37;;;;;;;48.33;22.92;;;0.60;99.90;;;;;;5098995;28;20106;-78
2024/01/07 11:36:05;;;;;;;63.17;27.75;;;0.80;99.90;;;;;;5113639;28;20051;-80
2024/01/07 11:38:31;;;;;;;47.40;23.60;;;0.70;99.90;;;;;;5115619;28;20107;-78
2024/01/07 11:40:58;;;;;;;64.13;29.77;;;0.70;99.90;;;;;;5095493;28;20130;-78
2024/01/07 11:43:24;;;;;;;66.32;29.42;;;0.70;99.90;;;;;;5116106;28;20080;-76
2024/01/07 11:45:51;;;;;;;57.50;27.77;;;0.90;99.90;;;;;;5115735;28;20148;-77
2024/01/07 11:48:20;;;;;;;58.40;29.02;;;0.80;99.90;;;;;;5115928;28;20410;-78
2024/01/07 11:50:45;;;;;;;65.28;31.65;;;0.80;99.90;;;;;;5114528;28;20024;-78
2024/01/07 11:53:12;;;;;;;73.88;33.70;;;0.90;99.90;;;;;;5112765;28;20392;-77
2024/01/07 11:55:38;;;;;;;63.33;30.98;;;0.80;99.90;;;;;;5116510;28;20101;-78
2024/01/07 11:58:04;;;;;;;58.42;27.50;;;0.90;99.90;;;;;;5098200;28;20027;-80
2024/01/07 12:00:36;;;;;;;69.55;34.33;;;0.90;99.90;;;;;;5115834;28;20051;-79
2024/01/07 12:03:02;;;;;;;96.07;43.30;;;0.90;99.90;;;;;;5118324;28;20459;-79
2024/01/07 12:05:29;;;;;;;63.10;30.27;;;1.00;99.90;;;;;;5117131;28;20020;-79
2024/01/07 12:07:55;;;;;;;60.05;28.15;;;0.90;99.90;;;;;;5119395;28;20114;-78
2024/01/07 12:10:21;;;;;;;59.42;27.40;;;0.90;99.90;;;;;;5118315;28;20072;-79
2024/01/07 12:12:48;;;;;;;56.17;26.55;;;0.90;99.90;;;;;;5099480;28;20112;-78
2024/01/07 12:15:14;;;;;;;59.47;28.77;;;1.00;99.90;;;;;;5098142;28;20036;-78
2024/01/07 12:17:40;;;;;;;66.32;31.73;;;1.00;99.90;;;;;;5118386;28;20028;-79
2024/01/07 12:20:08;;;;;;;63.78;29.42;;;1.10;99.90;;;;;;5118415;28;20064;-80
2024/01/07 12:22:42;;;;;;;72.43;28.67;;;1.10;99.90;;;;;;5119543;28;20031;-78
2024/01/07 12:25:08;;;;;;;64.70;29.27;;;1.10;99.90;;;;;;5099382;28;20103;-79
2024/01/07 12:27:36;;;;;;;72.20;28.23;;;1.20;99.90;;;;;;5117271;28;20028;-78
2024/01/07 12:30:02;;;;;;;47.35;25.42;;;1.20;99.90;;;;;;5126307;27;20360;-78
2024/01/07 12:32:30;;;;;;;54.45;25.48;;;1.30;99.90;;;;;;5109004;27;20034;-78